South Haven, MN (55382)

3:50 AM CDT on August 31, 2015 (GMT -0500)
South Haven | | Change Station
CLOSE
Current Station
Personal Weather Station
Location: South Haven, MN
Elevation: 1102 ft
Nearby Weather Stations

Elev 1102 ft 45.36 °N, 94.21 °W | Updated 34 seconds ago

Overcast
Overcast
66.2 °F
Feels Like 66.2 °F
N
1.8
Wind Variable Wind from SE
Gusts 2.5 mph

Today
High -- | Low -- °F
--% Chance of Precip.
Yesterday
High -- | Low -- °F
Precip. -- in
6:36 AM 7:56 PM
Waning Gibbous, 96% visible
Pressure 29.91 in
Visibility 5.0 miles
Clouds Overcast 500 ft
Dew Point 66 °F
Humidity 99%
Rainfall 0.00 in
Snow Depth Not available.
UV 0.0 out of 12
Pollen 10.20 out of 12
Air Quality Not available.
Flu Activity Not available.
METAR KMGG 310816Z AUTO 18005KT 5SM BR OVC005 20/19 A2991 RMK AO2 T01950187
Pressure 29.91 in
Visibility 5.0 miles
Clouds Overcast 500 ft
Dew Point 66 °F
Humidity 99%
Rainfall 0.00 in
Snow Depth Not available.
UV 0.0 out of 12
Pollen 10.20 out of 12
Air Quality Not available.
Flu Activity Not available.
METAR KMGG 310816Z AUTO 18005KT 5SM BR OVC005 20/19 A2991 RMK AO2 T01950187

10-Day Weather Forecast

×

Almanac

Astronomy

Aug. 31, 2015 Rise Set
Actual Time
Civil Twilight
Nautical Twilight
Astronomical Twilight
Moon
Length of Visible Light
Length of Day
Tomorrow will be .
, % of the Moon is Illuminated

Today's Extremes

State Highs State Lows

Community

WunderPhotos

Upload Photos

1,851,220 photos uploaded!

WunderBlogs® & News

Nearby

Air Quality

  Air Quality AQ Index Pollutant
Not available.

Snow Depth

Station Depth Elevation

Earthquake Activity

City Distance Mag. Time & Date
Minimum magnitude displayed is 2.5.

Coastal Water Temperatures

Place Temperature

Stations

Nearby Weather Stations

Station Location Temp. Windchill Dew Point Humidity Wind Precip. Elev Updated Type